Houstonville, North Carolina
Current Conditions -  °F | °C
As of 5:55 PM on Tuesday 21 Oct 2014 (Local Time) from KSVH Reporting Station
Broken Clouds Broken Clouds  
Wind Chill: 64°   Ceiling: 7000
Heat Index: 64°   Visibility: 10mi
Dew Point: 42°   Wind: 12mph
Humidity: 44%   Direction: 320°NW
Pressure: 29.89"   Gusts: 20mph
Location:  35.9632°N, 80.7532°W
Report Text: KSVH 212155Z AUTO 32010G17KT 10SM BKN070 18/06 A2989 RMK AO2 T01800055
Loading
Personal Weather Stations






























Interactive Weather Map
Tropical Storm Tracking
New forecast layout! Learn more

10-Day Weather Forecast

Advertisements
Track Severe Weather on mobile